EDW46Y LSZH-LDSP
Flight info
| Callsign | EDW46Y |
|---|---|
| Flight time | 1h 11m |
| Altitude | 35000 |
| Route | DEGES Z2 XEBIX L607 ELMEM N606 GIRIS DCT NIVAS DCT PEVAL DCT SAL |
| Aircraft | A320/M-SDE2E3FGHIJ1RWXY/LB1 |
Departure
| Time | 2026-04-26 19:09 |
|---|---|
| Airport | Zürich Airport (LSZH) |
Arrival
| Time | 2026-04-26 20:20 |
|---|---|
| Airport | Split Saint Jerome Airport (LDSP) |
| Time | Latitude | Longitude | Altitude | Speed | Heading |
|---|---|---|---|---|---|
| 2026-04-26 18:43 | 47.45428 | 8.55634 | 1397 ft | 0 kts | 187° |
| 2026-04-26 18:59 | 47.45442 | 8.55636 | 1397 ft | 3 kts | 185° |
| 2026-04-26 18:59 | 47.45463 | 8.55638 | 1397 ft | 3 kts | 181° |
| 2026-04-26 18:59 | 47.45483 | 8.55638 | 1397 ft | 3 kts | 173° |
| 2026-04-26 19:00 | 47.45502 | 8.55632 | 1397 ft | 3 kts | 155° |
| 2026-04-26 19:00 | 47.45517 | 8.55619 | 1397 ft | 2 kts | 107° |
| 2026-04-26 19:00 | 47.45518 | 8.55612 | 1397 ft | 0 kts | 95° |
| 2026-04-26 19:03 | 47.45518 | 8.55618 | 1397 ft | 5 kts | 95° |
| 2026-04-26 19:04 | 47.45510 | 8.55728 | 1402 ft | 12 kts | 97° |
| 2026-04-26 19:04 | 47.45500 | 8.55850 | 1403 ft | 12 kts | 96° |
| 2026-04-26 19:04 | 47.45491 | 8.55972 | 1406 ft | 12 kts | 96° |
| 2026-04-26 19:04 | 47.45482 | 8.56092 | 1400 ft | 12 kts | 96° |
| 2026-04-26 19:05 | 47.45533 | 8.56251 | 1406 ft | 9 kts | 4° |
| 2026-04-26 19:05 | 47.45589 | 8.56259 | 1397 ft | 7 kts | 6° |
| 2026-04-26 19:05 | 47.45648 | 8.56268 | 1404 ft | 13 kts | 6° |
| 2026-04-26 19:06 | 47.45752 | 8.56285 | 1405 ft | 15 kts | 7° |
| 2026-04-26 19:06 | 47.45852 | 8.56301 | 1408 ft | 14 kts | 5° |
| 2026-04-26 19:06 | 47.45941 | 8.56313 | 1408 ft | 13 kts | 5° |
| 2026-04-26 19:06 | 47.46029 | 8.56326 | 1410 ft | 13 kts | 6° |
| 2026-04-26 19:07 | 47.46125 | 8.56341 | 1399 ft | 15 kts | 6° |
| 2026-04-26 19:07 | 47.46211 | 8.56325 | 1400 ft | 11 kts | 334° |
| 2026-04-26 19:07 | 47.46266 | 8.56261 | 1405 ft | 10 kts | 315° |
| 2026-04-26 19:07 | 47.46274 | 8.56250 | 1397 ft | 0 kts | 316° |
| 2026-04-26 19:08 | 47.46318 | 8.56188 | 1402 ft | 35 kts | 316° |
| 2026-04-26 19:08 | 47.46687 | 8.55681 | 1400 ft | 106 kts | 317° |
| 2026-04-26 19:09 | 47.47373 | 8.54749 | 1400 ft | 160 kts | 317° |
| 2026-04-26 19:09 | 47.48231 | 8.53562 | 1855 ft | 168 kts | 318° |
| 2026-04-26 19:09 | 47.49115 | 8.52438 | 2545 ft | 167 kts | 331° |
| 2026-04-26 19:09 | 47.50207 | 8.51690 | 2973 ft | 184 kts | 337° |
| 2026-04-26 19:10 | 47.51435 | 8.50812 | 3291 ft | 208 kts | 334° |
| 2026-04-26 19:10 | 47.52852 | 8.50057 | 3752 ft | 222 kts | 356° |
| 2026-04-26 19:10 | 47.54366 | 8.50378 | 4570 ft | 224 kts | 24° |
| 2026-04-26 19:10 | 47.55572 | 8.51784 | 5333 ft | 224 kts | 55° |
| 2026-04-26 19:11 | 47.56139 | 8.53882 | 6100 ft | 226 kts | 84° |
| 2026-04-26 19:11 | 47.55973 | 8.56233 | 6895 ft | 230 kts | 102° |
| 2026-04-26 19:11 | 47.55804 | 8.58591 | 7634 ft | 233 kts | 87° |
| 2026-04-26 19:11 | 47.56049 | 8.60946 | 8356 ft | 237 kts | 78° |
| 2026-04-26 19:12 | 47.56390 | 8.63348 | 9088 ft | 241 kts | 78° |
| 2026-04-26 19:12 | 47.56744 | 8.65794 | 9823 ft | 244 kts | 77° |
| 2026-04-26 19:12 | 47.57028 | 8.68289 | 10548 ft | 249 kts | 89° |
| 2026-04-26 19:12 | 47.56692 | 8.70808 | 11222 ft | 254 kts | 115° |
| 2026-04-26 19:13 | 47.55617 | 8.72984 | 11560 ft | 275 kts | 142° |
| 2026-04-26 19:13 | 47.53998 | 8.74698 | 11831 ft | 298 kts | 147° |
| 2026-04-26 19:13 | 47.52230 | 8.76512 | 12071 ft | 322 kts | 146° |
| 2026-04-26 19:13 | 47.50328 | 8.78476 | 12330 ft | 343 kts | 146° |
| 2026-04-26 19:14 | 47.48490 | 8.80801 | 12905 ft | 353 kts | 133° |
| 2026-04-26 19:14 | 47.47040 | 8.83752 | 13584 ft | 359 kts | 120° |
| 2026-04-26 19:14 | 47.46052 | 8.87159 | 14277 ft | 363 kts | 107° |
| 2026-04-26 19:14 | 47.45832 | 8.88375 | 14484 ft | 365 kts | 103° |
| 2026-04-26 19:15 | 47.44952 | 8.94530 | 15612 ft | 371 kts | 102° |
| 2026-04-26 19:15 | 47.44416 | 8.98275 | 16271 ft | 374 kts | 102° |
| 2026-04-26 19:15 | 47.43876 | 9.02057 | 16898 ft | 378 kts | 102° |
| 2026-04-26 19:15 | 47.43329 | 9.05872 | 17513 ft | 382 kts | 102° |
| 2026-04-26 19:16 | 47.42775 | 9.09723 | 18105 ft | 385 kts | 102° |
| 2026-04-26 19:16 | 47.42213 | 9.13611 | 18701 ft | 389 kts | 102° |
| 2026-04-26 19:16 | 47.41718 | 9.17549 | 19267 ft | 392 kts | 96° |
| 2026-04-26 19:16 | 47.41658 | 9.21588 | 19824 ft | 396 kts | 85° |
| 2026-04-26 19:17 | 47.42083 | 9.25613 | 20367 ft | 398 kts | 76° |
| 2026-04-26 19:17 | 47.42700 | 9.29612 | 20934 ft | 402 kts | 76° |
| 2026-04-26 19:17 | 47.43316 | 9.33659 | 21462 ft | 405 kts | 76° |
| 2026-04-26 19:17 | 47.43932 | 9.37732 | 21986 ft | 409 kts | 76° |
| 2026-04-26 19:18 | 47.44552 | 9.41852 | 22501 ft | 412 kts | 76° |
| 2026-04-26 19:18 | 47.45173 | 9.46000 | 22992 ft | 416 kts | 76° |
| 2026-04-26 19:18 | 47.45795 | 9.50194 | 23477 ft | 419 kts | 76° |
| 2026-04-26 19:18 | 47.46422 | 9.54421 | 23954 ft | 423 kts | 76° |
| 2026-04-26 19:19 | 47.46976 | 9.58698 | 24399 ft | 426 kts | 82° |
| 2026-04-26 19:19 | 47.47102 | 9.63095 | 24828 ft | 430 kts | 92° |
| 2026-04-26 19:19 | 47.46873 | 9.67515 | 25242 ft | 433 kts | 95° |
| 2026-04-26 19:19 | 47.46625 | 9.71965 | 25634 ft | 436 kts | 95° |
| 2026-04-26 19:20 | 47.46383 | 9.76384 | 26023 ft | 439 kts | 95° |
| 2026-04-26 19:20 | 47.46301 | 9.77903 | 26150 ft | 440 kts | 95° |
| 2026-04-26 19:20 | 47.45888 | 9.85432 | 26755 ft | 445 kts | 95° |
| 2026-04-26 19:20 | 47.45634 | 9.89994 | 27120 ft | 447 kts | 95° |
| 2026-04-26 19:21 | 47.45459 | 9.93095 | 27360 ft | 449 kts | 95° |
| 2026-04-26 19:21 | 47.45111 | 9.99206 | 27827 ft | 453 kts | 95° |
| 2026-04-26 19:21 | 47.44933 | 10.02342 | 28059 ft | 454 kts | 95° |
| 2026-04-26 19:21 | 47.44665 | 10.06997 | 28382 ft | 457 kts | 96° |
| 2026-04-26 19:22 | 47.44391 | 10.11694 | 28705 ft | 459 kts | 96° |
| 2026-04-26 19:22 | 47.44208 | 10.14809 | 28912 ft | 461 kts | 96° |
| 2026-04-26 19:22 | 47.44099 | 10.16646 | 29033 ft | 462 kts | 97° |
| 2026-04-26 19:22 | 47.43579 | 10.21328 | 29318 ft | 463 kts | 103° |
| 2026-04-26 19:23 | 47.42942 | 10.26005 | 29612 ft | 465 kts | 103° |
| 2026-04-26 19:23 | 47.42310 | 10.30700 | 29909 ft | 467 kts | 102° |
| 2026-04-26 19:23 | 47.41674 | 10.35407 | 30196 ft | 469 kts | 104° |
| 2026-04-26 19:23 | 47.40720 | 10.39994 | 30450 ft | 468 kts | 114° |
| 2026-04-26 19:24 | 47.39276 | 10.44219 | 30699 ft | 467 kts | 124° |
| 2026-04-26 19:24 | 47.37355 | 10.48059 | 30927 ft | 465 kts | 135° |
| 2026-04-26 19:24 | 47.32382 | 10.54027 | 31356 ft | 461 kts | 154° |
| 2026-04-26 19:25 | 47.29557 | 10.56275 | 31558 ft | 462 kts | 155° |
| 2026-04-26 19:25 | 47.27647 | 10.57786 | 31763 ft | 461 kts | 155° |
| 2026-04-26 19:25 | 47.23802 | 10.60383 | 32167 ft | 458 kts | 160° |
| 2026-04-26 19:25 | 47.20867 | 10.62200 | 32481 ft | 457 kts | 161° |
| 2026-04-26 19:26 | 47.17925 | 10.63977 | 32765 ft | 457 kts | 161° |
| 2026-04-26 19:26 | 47.14983 | 10.65731 | 33035 ft | 457 kts | 161° |
| 2026-04-26 19:26 | 47.12037 | 10.67484 | 33324 ft | 456 kts | 161° |
| 2026-04-26 19:26 | 47.09096 | 10.69243 | 33609 ft | 456 kts | 161° |
| 2026-04-26 19:27 | 47.06159 | 10.71007 | 33904 ft | 456 kts | 161° |
| 2026-04-26 19:27 | 47.03228 | 10.72775 | 34179 ft | 456 kts | 161° |
| 2026-04-26 19:27 | 47.00297 | 10.74548 | 34456 ft | 456 kts | 161° |
| 2026-04-26 19:27 | 46.97365 | 10.76320 | 34754 ft | 456 kts | 161° |
| 2026-04-26 19:28 | 46.94435 | 10.78084 | 35039 ft | 455 kts | 161° |
| 2026-04-26 19:28 | 46.91503 | 10.79841 | 35161 ft | 455 kts | 161° |
| 2026-04-26 19:28 | 46.85690 | 10.83323 | 35174 ft | 450 kts | 161° |
| 2026-04-26 19:29 | 46.79931 | 10.86883 | 35173 ft | 451 kts | 155° |
| 2026-04-26 19:29 | 46.74896 | 10.92230 | 35162 ft | 458 kts | 137° |
| 2026-04-26 19:30 | 46.70621 | 10.99192 | 35141 ft | 459 kts | 134° |
| 2026-04-26 19:30 | 46.67061 | 11.05010 | 35139 ft | 459 kts | 134° |
| 2026-04-26 19:31 | 46.62105 | 11.13071 | 35141 ft | 460 kts | 134° |
| 2026-04-26 19:31 | 46.57848 | 11.20008 | 35132 ft | 460 kts | 134° |
| 2026-04-26 19:32 | 46.53588 | 11.26946 | 35099 ft | 460 kts | 134° |
| 2026-04-26 19:32 | 46.49328 | 11.33851 | 35081 ft | 459 kts | 134° |
| 2026-04-26 19:33 | 46.45051 | 11.40735 | 35075 ft | 459 kts | 134° |
| 2026-04-26 19:33 | 46.40780 | 11.47615 | 35078 ft | 459 kts | 134° |
| 2026-04-26 19:34 | 46.36503 | 11.54486 | 35118 ft | 459 kts | 134° |
| 2026-04-26 19:34 | 46.32224 | 11.61344 | 35175 ft | 459 kts | 134° |
| 2026-04-26 19:35 | 46.27946 | 11.68188 | 35222 ft | 459 kts | 134° |
| 2026-04-26 19:35 | 46.23665 | 11.75024 | 35247 ft | 458 kts | 134° |
| 2026-04-26 19:36 | 46.20105 | 11.80693 | 35268 ft | 458 kts | 134° |
| 2026-04-26 19:36 | 46.15097 | 11.88653 | 35266 ft | 458 kts | 134° |
| 2026-04-26 19:37 | 46.10811 | 11.95441 | 35273 ft | 458 kts | 134° |
| 2026-04-26 19:37 | 46.06550 | 12.02175 | 35257 ft | 458 kts | 134° |
| 2026-04-26 19:38 | 46.02256 | 12.08931 | 35238 ft | 457 kts | 134° |
| 2026-04-26 19:38 | 45.97957 | 12.15686 | 35183 ft | 457 kts | 134° |
| 2026-04-26 19:39 | 45.93670 | 12.22407 | 35165 ft | 456 kts | 134° |
| 2026-04-26 19:39 | 45.89373 | 12.29129 | 35150 ft | 457 kts | 134° |
| 2026-04-26 19:40 | 45.85183 | 12.35985 | 35138 ft | 457 kts | 132° |
| 2026-04-26 19:40 | 45.81070 | 12.42956 | 35129 ft | 458 kts | 132° |
| 2026-04-26 19:41 | 45.76942 | 12.49900 | 35125 ft | 458 kts | 132° |
| 2026-04-26 19:41 | 45.73477 | 12.55634 | 35131 ft | 458 kts | 133° |
| 2026-04-26 19:42 | 45.68587 | 12.63670 | 35128 ft | 458 kts | 133° |
| 2026-04-26 19:42 | 45.64411 | 12.70540 | 35129 ft | 458 kts | 132° |
| 2026-04-26 19:43 | 45.60268 | 12.77366 | 35120 ft | 458 kts | 132° |
| 2026-04-26 19:43 | 45.56090 | 12.84222 | 35117 ft | 458 kts | 132° |
| 2026-04-26 19:44 | 45.51907 | 12.91066 | 35114 ft | 457 kts | 133° |
| 2026-04-26 19:44 | 45.47713 | 12.97893 | 35110 ft | 458 kts | 133° |
| 2026-04-26 19:45 | 45.43432 | 13.04591 | 35108 ft | 457 kts | 135° |
| 2026-04-26 19:45 | 45.38993 | 13.11060 | 35105 ft | 457 kts | 136° |
| 2026-04-26 19:46 | 45.34530 | 13.17492 | 35103 ft | 457 kts | 136° |
| 2026-04-26 19:46 | 45.30097 | 13.23964 | 35102 ft | 457 kts | 135° |
| 2026-04-26 19:47 | 45.26391 | 13.29404 | 35102 ft | 457 kts | 135° |
| 2026-04-26 19:47 | 45.21246 | 13.36935 | 35103 ft | 458 kts | 135° |
| 2026-04-26 19:48 | 45.16810 | 13.43407 | 35104 ft | 457 kts | 136° |
| 2026-04-26 19:48 | 45.12368 | 13.49856 | 35103 ft | 457 kts | 136° |
| 2026-04-26 19:49 | 45.07926 | 13.56293 | 35104 ft | 457 kts | 136° |
| 2026-04-26 19:49 | 45.03487 | 13.62718 | 35104 ft | 457 kts | 136° |
| 2026-04-26 19:50 | 44.99049 | 13.69129 | 35103 ft | 456 kts | 136° |
| 2026-04-26 19:50 | 44.94604 | 13.75521 | 35100 ft | 456 kts | 136° |
| 2026-04-26 19:51 | 44.90156 | 13.81907 | 35099 ft | 456 kts | 136° |
| 2026-04-26 19:51 | 44.85707 | 13.88290 | 35099 ft | 456 kts | 136° |
| 2026-04-26 19:52 | 44.81284 | 13.94623 | 35100 ft | 456 kts | 136° |
| 2026-04-26 19:52 | 44.76827 | 14.00986 | 35102 ft | 456 kts | 136° |
| 2026-04-26 19:53 | 44.72364 | 14.07337 | 35105 ft | 457 kts | 136° |
| 2026-04-26 19:53 | 44.67893 | 14.13679 | 35106 ft | 457 kts | 136° |
| 2026-04-26 19:54 | 44.63416 | 14.20013 | 35109 ft | 457 kts | 136° |
| 2026-04-26 19:54 | 44.58942 | 14.26340 | 35112 ft | 457 kts | 136° |
| 2026-04-26 19:55 | 44.54464 | 14.32666 | 35114 ft | 457 kts | 136° |
| 2026-04-26 19:55 | 44.49984 | 14.38970 | 35113 ft | 456 kts | 136° |
| 2026-04-26 19:56 | 44.45490 | 14.45276 | 35098 ft | 459 kts | 136° |
| 2026-04-26 19:56 | 44.40973 | 14.51605 | 35099 ft | 460 kts | 136° |
| 2026-04-26 19:57 | 44.38719 | 14.54755 | 34718 ft | 457 kts | 136° |
| 2026-04-26 19:57 | 44.36470 | 14.57890 | 34004 ft | 457 kts | 136° |
| 2026-04-26 19:57 | 44.34225 | 14.61017 | 33370 ft | 455 kts | 136° |
| 2026-04-26 19:57 | 44.31992 | 14.64125 | 32834 ft | 451 kts | 136° |
| 2026-04-26 19:58 | 44.29780 | 14.67197 | 32310 ft | 447 kts | 136° |
| 2026-04-26 19:58 | 44.27618 | 14.70204 | 31792 ft | 443 kts | 136° |
| 2026-04-26 19:58 | 44.25415 | 14.73266 | 31262 ft | 440 kts | 136° |
| 2026-04-26 19:58 | 44.23258 | 14.76258 | 30758 ft | 436 kts | 136° |
| 2026-04-26 19:59 | 44.21117 | 14.79225 | 30243 ft | 432 kts | 135° |
| 2026-04-26 19:59 | 44.18993 | 14.82165 | 29743 ft | 428 kts | 135° |
| 2026-04-26 19:59 | 44.16887 | 14.85079 | 29235 ft | 425 kts | 135° |
| 2026-04-26 19:59 | 44.14797 | 14.87966 | 28742 ft | 422 kts | 135° |
| 2026-04-26 20:00 | 44.12724 | 14.90826 | 28262 ft | 418 kts | 135° |
| 2026-04-26 20:00 | 44.10669 | 14.93658 | 27780 ft | 414 kts | 135° |
| 2026-04-26 20:00 | 44.08629 | 14.96464 | 27305 ft | 411 kts | 135° |
| 2026-04-26 20:00 | 44.06609 | 14.99242 | 26835 ft | 407 kts | 135° |
| 2026-04-26 20:01 | 44.04628 | 15.01963 | 26373 ft | 404 kts | 135° |
| 2026-04-26 20:01 | 44.02641 | 15.04694 | 25911 ft | 400 kts | 135° |
| 2026-04-26 20:01 | 44.00668 | 15.07400 | 25466 ft | 397 kts | 135° |
| 2026-04-26 20:01 | 43.98709 | 15.10080 | 25007 ft | 394 kts | 135° |
| 2026-04-26 20:02 | 43.96766 | 15.12736 | 24536 ft | 391 kts | 135° |
| 2026-04-26 20:02 | 43.94835 | 15.15375 | 24061 ft | 388 kts | 135° |
| 2026-04-26 20:02 | 43.92905 | 15.17964 | 23600 ft | 385 kts | 136° |
| 2026-04-26 20:02 | 43.91598 | 15.19616 | 23295 ft | 383 kts | 138° |
| 2026-04-26 20:03 | 43.88920 | 15.22835 | 22706 ft | 379 kts | 139° |
| 2026-04-26 20:03 | 43.86914 | 15.25179 | 22265 ft | 376 kts | 139° |
| 2026-04-26 20:03 | 43.84920 | 15.27500 | 21819 ft | 373 kts | 139° |
| 2026-04-26 20:03 | 43.82948 | 15.29811 | 21382 ft | 370 kts | 139° |
| 2026-04-26 20:04 | 43.81000 | 15.32115 | 20945 ft | 367 kts | 139° |
| 2026-04-26 20:04 | 43.79070 | 15.34411 | 20501 ft | 364 kts | 139° |
| 2026-04-26 20:04 | 43.77159 | 15.36691 | 20080 ft | 361 kts | 138° |
| 2026-04-26 20:04 | 43.75267 | 15.38952 | 19656 ft | 358 kts | 138° |
| 2026-04-26 20:05 | 43.73390 | 15.41198 | 19237 ft | 355 kts | 138° |
| 2026-04-26 20:05 | 43.71526 | 15.43423 | 18820 ft | 353 kts | 138° |
| 2026-04-26 20:05 | 43.69673 | 15.45630 | 18401 ft | 350 kts | 138° |
| 2026-04-26 20:05 | 43.67832 | 15.47820 | 17987 ft | 348 kts | 138° |
| 2026-04-26 20:06 | 43.66002 | 15.49987 | 17581 ft | 345 kts | 138° |
| 2026-04-26 20:06 | 43.64207 | 15.52109 | 17175 ft | 343 kts | 138° |
| 2026-04-26 20:06 | 43.62396 | 15.54249 | 16762 ft | 342 kts | 138° |
| 2026-04-26 20:06 | 43.60598 | 15.56378 | 16352 ft | 340 kts | 138° |
| 2026-04-26 20:07 | 43.58808 | 15.58496 | 15946 ft | 338 kts | 138° |
| 2026-04-26 20:07 | 43.57027 | 15.60601 | 15539 ft | 336 kts | 138° |
| 2026-04-26 20:07 | 43.55254 | 15.62698 | 15136 ft | 335 kts | 138° |
| 2026-04-26 20:07 | 43.53491 | 15.64783 | 14730 ft | 333 kts | 138° |
| 2026-04-26 20:08 | 43.51734 | 15.66856 | 14329 ft | 332 kts | 138° |
| 2026-04-26 20:08 | 43.49988 | 15.68914 | 14050 ft | 326 kts | 138° |
| 2026-04-26 20:08 | 43.48292 | 15.70912 | 13919 ft | 316 kts | 138° |
| 2026-04-26 20:08 | 43.46634 | 15.72863 | 13671 ft | 311 kts | 138° |
| 2026-04-26 20:09 | 43.44995 | 15.74792 | 13346 ft | 309 kts | 138° |
| 2026-04-26 20:09 | 43.43366 | 15.76707 | 13005 ft | 307 kts | 138° |
| 2026-04-26 20:09 | 43.41649 | 15.78437 | 12650 ft | 307 kts | 155° |
| 2026-04-26 20:09 | 43.39597 | 15.79018 | 12438 ft | 300 kts | 183° |
| 2026-04-26 20:10 | 43.37621 | 15.78279 | 12188 ft | 294 kts | 211° |
| 2026-04-26 20:10 | 43.36066 | 15.76500 | 11846 ft | 291 kts | 226° |
| 2026-04-26 20:10 | 43.34650 | 15.74511 | 11482 ft | 291 kts | 227° |
| 2026-04-26 20:10 | 43.33676 | 15.73248 | 11243 ft | 291 kts | 217° |
| 2026-04-26 20:11 | 43.31840 | 15.72188 | 11101 ft | 289 kts | 186° |
| 2026-04-26 20:11 | 43.29862 | 15.72467 | 11112 ft | 288 kts | 157° |
| 2026-04-26 20:11 | 43.27801 | 15.74657 | 11115 ft | 286 kts | 130° |
| 2026-04-26 20:12 | 43.25130 | 15.78804 | 10210 ft | 290 kts | 116° |
| 2026-04-26 20:12 | 43.24699 | 15.80546 | 9824 ft | 283 kts | 95° |
| 2026-04-26 20:12 | 43.24929 | 15.83152 | 9244 ft | 275 kts | 65° |
| 2026-04-26 20:12 | 43.26017 | 15.85239 | 8672 ft | 267 kts | 45° |
| 2026-04-26 20:13 | 43.27317 | 15.87036 | 8093 ft | 263 kts | 45° |
| 2026-04-26 20:13 | 43.28578 | 15.88782 | 7522 ft | 259 kts | 45° |
| 2026-04-26 20:13 | 43.29835 | 15.90531 | 6950 ft | 256 kts | 45° |
| 2026-04-26 20:13 | 43.31076 | 15.92264 | 6364 ft | 252 kts | 45° |
| 2026-04-26 20:14 | 43.32297 | 15.93975 | 5800 ft | 249 kts | 45° |
| 2026-04-26 20:14 | 43.33494 | 15.95648 | 5360 ft | 240 kts | 45° |
| 2026-04-26 20:14 | 43.34650 | 15.97265 | 5037 ft | 236 kts | 45° |
| 2026-04-26 20:14 | 43.35790 | 15.98863 | 4707 ft | 230 kts | 45° |
| 2026-04-26 20:15 | 43.36887 | 16.00402 | 4378 ft | 223 kts | 45° |
| 2026-04-26 20:15 | 43.37993 | 16.01868 | 4131 ft | 220 kts | 41° |
| 2026-04-26 20:15 | 43.39069 | 16.03378 | 3881 ft | 221 kts | 49° |
| 2026-04-26 20:15 | 43.40033 | 16.05008 | 3713 ft | 219 kts | 51° |
| 2026-04-26 20:16 | 43.40951 | 16.06640 | 3517 ft | 213 kts | 51° |
| 2026-04-26 20:16 | 43.41847 | 16.08240 | 3315 ft | 210 kts | 51° |
| 2026-04-26 20:16 | 43.42734 | 16.09822 | 3114 ft | 209 kts | 51° |
| 2026-04-26 20:16 | 43.43619 | 16.11401 | 2928 ft | 208 kts | 51° |
| 2026-04-26 20:17 | 43.44486 | 16.12947 | 2811 ft | 201 kts | 51° |
| 2026-04-26 20:17 | 43.45333 | 16.14460 | 2583 ft | 199 kts | 52° |
| 2026-04-26 20:17 | 43.46180 | 16.15974 | 2331 ft | 199 kts | 52° |
| 2026-04-26 20:17 | 43.47024 | 16.17483 | 2090 ft | 197 kts | 52° |
| 2026-04-26 20:18 | 43.47850 | 16.18961 | 1816 ft | 191 kts | 52° |
| 2026-04-26 20:18 | 43.48628 | 16.20353 | 1552 ft | 175 kts | 52° |
| 2026-04-26 20:18 | 43.49338 | 16.21623 | 1350 ft | 159 kts | 52° |
| 2026-04-26 20:18 | 43.49979 | 16.22772 | 1142 ft | 145 kts | 52° |
| 2026-04-26 20:19 | 43.50575 | 16.23840 | 954 ft | 140 kts | 52° |
| 2026-04-26 20:19 | 43.51164 | 16.24895 | 772 ft | 138 kts | 52° |
| 2026-04-26 20:19 | 43.51754 | 16.25953 | 587 ft | 137 kts | 52° |
| 2026-04-26 20:19 | 43.52325 | 16.26977 | 405 ft | 136 kts | 52° |
| 2026-04-26 20:20 | 43.52902 | 16.28013 | 231 ft | 136 kts | 52° |
| 2026-04-26 20:20 | 43.53474 | 16.29043 | 92 ft | 133 kts | 53° |
| 2026-04-26 20:20 | 43.53972 | 16.29933 | 73 ft | 97 kts | 53° |
| 2026-04-26 20:20 | 43.54276 | 16.30481 | 59 ft | 48 kts | 52° |
| 2026-04-26 20:21 | 43.54450 | 16.30783 | 61 ft | 29 kts | 52° |
| 2026-04-26 20:21 | 43.54555 | 16.30966 | 59 ft | 20 kts | 51° |
| 2026-04-26 20:21 | 43.54571 | 16.31050 | 58 ft | 7 kts | 157° |
| 2026-04-26 20:21 | 43.54547 | 16.30995 | 62 ft | 12 kts | 253° |
| 2026-04-26 20:22 | 43.54479 | 16.30844 | 54 ft | 18 kts | 230° |
| 2026-04-26 20:22 | 43.54402 | 16.30703 | 61 ft | 20 kts | 233° |
| 2026-04-26 20:22 | 43.54311 | 16.30541 | 60 ft | 23 kts | 232° |
| 2026-04-26 20:22 | 43.54215 | 16.30370 | 65 ft | 22 kts | 232° |
| 2026-04-26 20:23 | 43.54125 | 16.30208 | 73 ft | 20 kts | 231° |
| 2026-04-26 20:23 | 43.54008 | 16.30097 | 73 ft | 22 kts | 204° |
| 2026-04-26 20:23 | 43.53890 | 16.30034 | 61 ft | 16 kts | 218° |
| 2026-04-26 20:23 | 43.53843 | 16.29952 | 64 ft | 9 kts | 235° |
| 2026-04-26 20:24 | 43.53819 | 16.29923 | 68 ft | 3 kts | 179° |
| 2026-04-26 20:24 | 43.53810 | 16.29933 | 68 ft | 1 kts | 128° |
| 2026-04-26 20:24 | 43.53809 | 16.29940 | 68 ft | 0 kts | 112° |
| 2026-04-26 20:24 | 43.53806 | 16.29956 | 68 ft | 2 kts | 105° |
| 2026-04-26 20:25 | 43.53802 | 16.29970 | 68 ft | 1 kts | 111° |
| 2026-04-26 20:25 | 43.53798 | 16.29982 | 61 ft | 0 kts | 112° |
| 2026-04-26 20:25 | 43.53793 | 16.29998 | 59 ft | 0 kts | 113° |